Time;durP1;ratioP1;P1;durP2;ratioP2;P2;SDS_P1;SDS_P2;PMS_P1;PMS_P2;Temp;Humidity;BMP_temperature;BMP_pressure;BME280_temperature;BME280_humidity;BME280_pressure;Samples;Min_cycle;Max_cycle;Signal;HPM_P1;HPM_P2
2023/05/23 00:00:59;;;;;;;16.47;14.87;;;17.40;99.90;;;;;;5097087;28;20419;-45
2023/05/23 00:03:25;;;;;;;17.03;15.53;;;17.40;99.90;;;;;;5097367;28;20176;-45
2023/05/23 00:05:51;;;;;;;16.80;15.20;;;17.40;99.90;;;;;;5097355;28;20902;-46
2023/05/23 00:08:17;;;;;;;18.07;16.40;;;17.40;99.90;;;;;;5097096;28;20663;-45
2023/05/23 00:10:44;;;;;;;22.13;20.03;;;17.40;1.00;;;;;;5097060;28;20267;-46
2023/05/23 00:13:14;;;;;;;19.70;17.80;;;17.40;1.00;;;;;;5097208;28;20651;-46
2023/05/23 00:15:40;;;;;;;22.87;20.47;;;17.40;1.00;;;;;;5096254;28;20430;-46
2023/05/23 00:18:13;;;;;;;22.70;20.40;;;17.30;26.40;;;;;;5096311;28;20522;-47
2023/05/23 00:20:41;;;;;;;29.83;26.30;;;17.30;85.60;;;;;;5096677;28;20415;-45
2023/05/23 00:23:08;;;;;;;31.03;27.67;;;17.30;99.90;;;;;;5097041;28;20434;-46
2023/05/23 00:25:34;;;;;;;28.10;25.10;;;17.30;99.90;;;;;;5097251;28;20440;-45
2023/05/23 00:28:00;;;;;;;32.10;27.50;;;17.30;99.90;;;;;;5097166;28;20929;-45
2023/05/23 00:30:27;;;;;;;29.20;26.10;;;17.30;1.00;;;;;;5097204;28;20426;-47
2023/05/23 00:32:55;;;;;;;33.37;28.57;;;17.30;1.00;;;;;;5095396;28;20414;-45
2023/05/23 00:35:22;;;;;;;40.07;34.30;;;17.20;1.00;;;;;;5094918;28;20430;-47
2023/05/23 00:37:50;;;;;;;32.60;28.77;;;17.20;1.00;;;;;;5095053;28;20875;-45
2023/05/23 00:40:17;;;;;;;40.80;36.37;;;17.10;1.00;;;;;;5095739;28;20418;-47
2023/05/23 00:42:42;;;;;;;37.90;32.53;;;17.10;1.00;;;;;;5095678;28;20904;-47
2023/05/23 00:45:08;;;;;;;36.30;31.53;;;17.10;10.80;;;;;;5099284;28;20410;-47
2023/05/23 00:47:34;;;;;;;43.97;35.73;;;17.10;27.00;;;;;;5098994;28;20486;-46
2023/05/23 00:49:59;;;;;;;38.97;34.30;;;17.10;48.80;;;;;;5098176;28;20406;-46
2023/05/23 00:52:25;;;;;;;44.57;34.57;;;17.10;60.00;;;;;;5099123;28;20260;-47
2023/05/23 00:54:51;;;;;;;48.20;35.10;;;17.10;99.90;;;;;;5099673;28;20238;-46
2023/05/23 00:57:16;;;;;;;42.33;34.67;;;17.10;99.90;;;;;;5100412;28;20203;-45
2023/05/23 00:59:43;;;;;;;40.97;35.97;;;17.20;99.90;;;;;;5100863;28;20259;-47
2023/05/23 01:02:09;;;;;;;48.33;39.40;;;17.20;99.90;;;;;;5099889;28;20255;-46
2023/05/23 01:04:35;;;;;;;49.87;40.97;;;17.20;99.90;;;;;;5099235;28;20564;-47
2023/05/23 01:07:00;;;;;;;54.73;43.37;;;17.20;99.90;;;;;;5099170;28;20426;-46
2023/05/23 01:09:27;;;;;;;50.27;40.23;;;17.10;99.90;;;;;;5100193;28;20421;-46
2023/05/23 01:12:14;;;;;;;49.00;39.67;;;17.10;99.90;;;;;;5099246;28;20200;-47
2023/05/23 01:15:09;;;;;;;54.07;40.67;;;17.10;99.90;;;;;;5099890;28;20410;-46
2023/05/23 01:17:44;;;;;;;53.07;41.00;;;17.10;99.90;;;;;;5090848;28;20509;-45
2023/05/23 01:20:22;;;;;;;48.20;38.10;;;17.10;99.90;;;;;;5099513;28;20414;-47
2023/05/23 01:22:59;;;;;;;56.73;42.20;;;17.10;99.90;;;;;;5097922;28;20686;-46
2023/05/23 01:25:46;;;;;;;54.17;43.10;;;17.10;99.90;;;;;;5098959;28;20818;-45
2023/05/23 01:28:16;;;;;;;54.60;40.33;;;17.00;99.90;;;;;;5098970;28;20441;-46
2023/05/23 01:30:43;;;;;;;52.13;40.27;;;17.00;99.90;;;;;;5097868;28;20725;-45
2023/05/23 01:33:11;;;;;;;54.50;42.77;;;17.00;99.90;;;;;;5098077;28;20491;-50
2023/05/23 01:35:37;;;;;;;54.10;41.07;;;17.00;99.90;;;;;;5098566;28;20422;-46
2023/05/23 01:38:02;;;;;;;50.13;41.23;;;17.00;99.90;;;;;;5099316;28;20461;-46
2023/05/23 01:40:28;;;;;;;58.40;44.00;;;17.00;99.90;;;;;;5099969;28;20763;-45
2023/05/23 01:42:56;;;;;;;55.83;46.07;;;17.00;99.90;;;;;;5099767;28;20173;-47
2023/05/23 01:45:23;;;;;;;52.27;41.90;;;17.00;99.90;;;;;;5098677;28;20173;-47
2023/05/23 01:47:49;;;;;;;52.53;41.93;;;17.00;99.90;;;;;;5098702;28;20429;-46
2023/05/23 01:50:16;;;;;;;57.60;46.80;;;16.90;99.90;;;;;;5099660;28;20863;-46
2023/05/23 01:52:41;;;;;;;60.37;43.87;;;16.90;99.90;;;;;;5099848;28;20843;-45
2023/05/23 01:55:13;;;;;;;54.83;45.00;;;16.90;99.90;;;;;;5096106;28;20413;-46
2023/05/23 01:57:39;;;;;;;58.70;46.87;;;16.90;99.90;;;;;;5098173;28;20215;-45
2023/05/23 02:00:05;;;;;;;55.77;45.23;;;16.90;99.90;;;;;;5099422;28;20403;-46
2023/05/23 02:02:32;;;;;;;64.83;50.97;;;16.90;99.90;;;;;;5098543;28;20446;-46
2023/05/23 02:04:58;;;;;;;58.20;49.67;;;16.90;99.90;;;;;;5098385;28;20546;-45
2023/05/23 02:07:24;;;;;;;64.53;49.87;;;17.00;99.90;;;;;;5098871;28;20836;-45
2023/05/23 02:09:49;;;;;;;60.00;47.47;;;17.00;99.90;;;;;;5099118;28;20467;-47
2023/05/23 02:12:15;;;;;;;63.10;50.70;;;17.00;99.90;;;;;;5099026;28;20479;-48
2023/05/23 02:18:03;;;;;;;68.63;52.57;;;17.00;99.90;;;;;;5098369;28;20619;-47
2023/05/23 02:20:28;;;;;;;67.27;50.23;;;17.00;99.90;;;;;;5098373;28;20418;-45
2023/05/23 02:22:54;;;;;;;66.90;50.30;;;16.90;99.90;;;;;;5097372;28;20172;-47
2023/05/23 02:25:20;;;;;;;60.50;49.93;;;16.90;99.90;;;;;;5097400;28;20198;-45
2023/05/23 02:27:45;;;;;;;70.63;52.83;;;16.90;99.90;;;;;;5097804;28;20267;-46
2023/05/23 02:30:11;;;;;;;61.47;50.00;;;16.90;99.90;;;;;;5097558;28;20232;-45
2023/05/23 02:32:37;;;;;;;63.53;51.97;;;16.90;99.90;;;;;;5097395;28;20280;-46
2023/05/23 02:35:04;;;;;;;68.80;52.77;;;16.90;99.90;;;;;;5097697;28;20453;-45
2023/05/23 02:37:29;;;;;;;64.73;50.53;;;16.90;99.90;;;;;;5098733;28;20582;-47
2023/05/23 02:39:55;;;;;;;66.90;51.10;;;16.90;99.90;;;;;;5098516;28;20414;-45
2023/05/23 02:42:21;;;;;;;70.20;52.30;;;16.90;99.90;;;;;;5098749;28;20179;-48
2023/05/23 02:44:47;;;;;;;62.40;49.00;;;16.90;99.90;;;;;;5098607;28;20177;-46
2023/05/23 02:47:12;;;;;;;65.43;52.87;;;16.90;99.90;;;;;;5098799;28;20192;-46
2023/05/23 02:49:38;;;;;;;64.80;52.97;;;17.00;99.90;;;;;;5098553;28;20172;-47
2023/05/23 02:52:04;;;;;;;67.00;53.20;;;17.00;99.90;;;;;;5098467;28;20245;-45
2023/05/23 02:54:29;;;;;;;71.93;54.20;;;17.00;99.90;;;;;;5097933;28;20550;-45
2023/05/23 02:56:55;;;;;;;71.17;54.33;;;17.00;99.90;;;;;;5097853;28;20218;-45
2023/05/23 02:59:22;;;;;;;67.40;51.77;;;17.00;99.90;;;;;;5098242;28;20426;-45
2023/05/23 03:01:47;;;;;;;74.17;56.30;;;16.90;99.90;;;;;;5098022;28;20184;-44
2023/05/23 03:04:13;;;;;;;68.57;54.07;;;16.90;99.90;;;;;;5098454;28;20423;-47
2023/05/23 03:06:40;;;;;;;65.23;54.63;;;16.90;99.90;;;;;;5097829;28;20211;-45
2023/05/23 03:09:07;;;;;;;69.37;56.03;;;16.90;99.90;;;;;;5098041;28;20176;-48
2023/05/23 03:11:33;;;;;;;59.77;51.23;;;16.90;99.90;;;;;;5096032;28;20433;-46
2023/05/23 03:13:58;;;;;;;62.83;51.93;;;16.90;99.90;;;;;;5096890;28;20845;-46
2023/05/23 03:16:24;;;;;;;66.80;54.83;;;16.90;99.90;;;;;;5096516;28;20176;-49
2023/05/23 03:18:49;;;;;;;65.50;54.90;;;16.90;99.90;;;;;;5096909;28;20176;-46
2023/05/23 03:21:15;;;;;;;64.57;49.67;;;16.90;99.90;;;;;;5096568;28;20169;-46
2023/05/23 03:23:40;;;;;;;64.97;54.07;;;16.80;99.90;;;;;;5096386;28;20242;-48
2023/05/23 03:26:06;;;;;;;65.03;55.17;;;16.90;99.90;;;;;;5096702;28;20200;-46
2023/05/23 03:28:32;;;;;;;68.00;54.73;;;16.90;99.90;;;;;;5097560;28;20228;-48
2023/05/23 03:30:58;;;;;;;61.60;53.13;;;16.80;99.90;;;;;;5097263;28;20169;-46
2023/05/23 03:33:23;;;;;;;66.57;54.80;;;16.80;99.90;;;;;;5097401;28;20600;-46
2023/05/23 03:35:50;;;;;;;65.53;54.80;;;16.80;99.90;;;;;;5095611;28;20418;-45
2023/05/23 03:38:15;;;;;;;62.13;53.30;;;16.70;99.90;;;;;;5096737;28;20196;-46
2023/05/23 03:40:41;;;;;;;64.67;54.27;;;16.70;99.90;;;;;;5097210;28;20731;-46
2023/05/23 03:43:07;;;;;;;63.60;56.60;;;16.70;99.90;;;;;;5095432;28;20189;-45
2023/05/23 03:45:33;;;;;;;66.80;55.33;;;16.70;99.90;;;;;;5095092;28;20172;-46
2023/05/23 03:47:59;;;;;;;68.43;54.20;;;16.70;99.90;;;;;;5095048;28;20759;-46
2023/05/23 03:50:25;;;;;;;69.67;55.03;;;16.80;99.90;;;;;;5095010;28;20486;-46
2023/05/23 03:52:52;;;;;;;61.00;51.90;;;16.80;99.90;;;;;;5095276;28;20418;-47
2023/05/23 03:55:21;;;;;;;62.63;51.47;;;16.80;99.90;;;;;;5093555;28;20421;-47
2023/05/23 03:57:47;;;;;;;67.67;54.40;;;16.80;99.90;;;;;;5094164;28;20470;-46
2023/05/23 04:00:14;;;;;;;61.23;52.47;;;16.80;99.90;;;;;;5094061;28;20429;-46
2023/05/23 04:02:39;;;;;;;64.07;52.23;;;16.80;99.90;;;;;;5095079;28;20483;-47
2023/05/23 04:05:06;;;;;;;68.07;54.53;;;16.80;99.90;;;;;;5095633;28;20426;-46
2023/05/23 04:07:35;;;;;;;66.13;55.53;;;16.80;99.90;;;;;;5095410;28;20211;-46
2023/05/23 04:10:01;;;;;;;59.40;49.63;;;16.80;99.90;;;;;;5096010;28;20495;-45
2023/05/23 04:12:29;;;;;;;64.43;53.17;;;16.80;99.90;;;;;;5097080;28;20851;-45
2023/05/23 04:14:55;;;;;;;59.80;50.30;;;16.80;99.90;;;;;;5097085;28;20832;-49
2023/05/23 04:17:21;;;;;;;67.67;55.40;;;16.80;99.90;;;;;;5096883;28;20482;-46
2023/05/23 04:19:47;;;;;;;59.57;52.30;;;16.90;99.90;;;;;;5098610;28;20245;-45
2023/05/23 04:22:12;;;;;;;64.37;52.47;;;16.80;99.90;;;;;;5099219;28;20822;-46
2023/05/23 04:24:38;;;;;;;58.40;50.83;;;16.80;99.90;;;;;;5098658;28;20176;-46
2023/05/23 04:27:03;;;;;;;64.67;55.17;;;16.80;99.90;;;;;;5099695;28;20179;-47
2023/05/23 04:29:32;;;;;;;56.73;47.20;;;16.80;99.90;;;;;;5099011;28;20244;-45
2023/05/23 04:31:58;;;;;;;70.10;54.10;;;16.80;99.90;;;;;;5098803;28;20168;-45
2023/05/23 04:34:23;;;;;;;65.23;55.50;;;16.80;99.90;;;;;;5098994;28;20398;-48
2023/05/23 04:36:49;;;;;;;70.30;55.80;;;16.80;99.90;;;;;;5097744;28;20669;-47
2023/05/23 04:39:15;;;;;;;56.70;49.93;;;16.80;99.90;;;;;;5098557;28;20184;-44
2023/05/23 04:41:44;;;;;;;63.77;53.60;;;16.80;99.90;;;;;;5098309;28;20574;-48
2023/05/23 04:44:10;;;;;;;57.20;51.07;;;16.70;99.90;;;;;;5098929;28;20642;-46
2023/05/23 04:46:35;;;;;;;60.20;53.57;;;16.70;99.90;;;;;;5098905;28;20415;-46
2023/05/23 04:49:02;;;;;;;56.77;50.03;;;16.70;99.90;;;;;;5098318;28;20422;-45
2023/05/23 04:51:28;;;;;;;55.03;49.33;;;16.60;99.90;;;;;;5098721;28;20176;-45
2023/05/23 04:53:54;;;;;;;55.00;49.00;;;16.60;99.90;;;;;;5099561;28;20862;-44
2023/05/23 04:56:20;;;;;;;60.77;54.47;;;16.70;99.90;;;;;;5099290;28;20180;-45
2023/05/23 04:58:46;;;;;;;58.80;52.40;;;16.70;99.90;;;;;;5097101;28;20164;-47
2023/05/23 05:01:13;;;;;;;57.23;51.10;;;16.80;99.90;;;;;;5096991;28;20476;-46
2023/05/23 05:03:39;;;;;;;59.80;53.20;;;16.80;99.90;;;;;;5095955;28;20419;-45
2023/05/23 05:06:05;;;;;;;57.40;51.20;;;16.70;99.90;;;;;;5078633;28;20426;-48
2023/05/23 05:08:31;;;;;;;60.80;53.03;;;16.70;99.90;;;;;;5096469;28;20413;-46
2023/05/23 05:10:56;;;;;;;59.67;53.30;;;16.70;99.90;;;;;;5096168;28;20438;-46
2023/05/23 05:13:22;;;;;;;56.07;49.87;;;16.70;99.90;;;;;;5095703;28;20843;-45
2023/05/23 05:15:48;;;;;;;61.23;52.00;;;16.70;99.90;;;;;;5095780;28;20261;-45
2023/05/23 05:18:13;;;;;;;64.47;57.63;;;16.70;99.90;;;;;;5094365;28;20452;-47
2023/05/23 05:20:39;;;;;;;57.00;50.40;;;16.70;99.90;;;;;;5095926;28;20587;-48
2023/05/23 05:23:05;;;;;;;57.00;50.90;;;16.70;99.90;;;;;;5095798;28;20192;-46
2023/05/23 05:25:33;;;;;;;65.27;58.10;;;16.70;99.90;;;;;;5096505;28;20184;-46
2023/05/23 05:28:04;;;;;;;59.53;53.20;;;16.80;99.90;;;;;;5095448;28;20715;-48
2023/05/23 05:30:34;;;;;;;51.67;46.37;;;16.80;99.90;;;;;;5095558;28;20513;-45
2023/05/23 05:33:03;;;;;;;56.10;50.10;;;16.90;99.90;;;;;;5095703;28;20529;-48
2023/05/23 05:35:30;;;;;;;55.03;49.40;;;16.90;99.90;;;;;;5096613;28;20921;-46
2023/05/23 05:37:56;;;;;;;57.37;51.47;;;16.90;99.90;;;;;;5095291;28;20735;-52
2023/05/23 05:40:22;;;;;;;58.03;52.07;;;16.90;99.90;;;;;;5094164;28;20465;-46
2023/05/23 05:42:48;;;;;;;58.90;52.90;;;16.90;99.90;;;;;;5096715;28;20463;-49
2023/05/23 05:45:14;;;;;;;58.67;52.73;;;16.90;99.90;;;;;;5097291;28;20590;-47
2023/05/23 05:47:40;;;;;;;60.60;54.17;;;16.90;99.90;;;;;;5096316;28;20410;-45
2023/05/23 05:50:08;;;;;;;59.33;53.13;;;16.80;99.90;;;;;;5096301;28;20267;-48
2023/05/23 05:52:37;;;;;;;58.93;52.83;;;16.80;99.90;;;;;;5096724;28;21065;-49
2023/05/23 05:55:05;;;;;;;56.70;50.93;;;16.80;99.90;;;;;;5094662;28;20426;-46
2023/05/23 05:57:31;;;;;;;60.77;54.57;;;16.80;99.90;;;;;;5095380;28;20930;-46
2023/05/23 05:59:56;;;;;;;57.97;52.07;;;16.80;99.90;;;;;;5095528;28;20514;-46
2023/05/23 06:02:22;;;;;;;55.03;49.30;;;16.80;99.90;;;;;;5094168;28;20165;-46
2023/05/23 06:04:47;;;;;;;56.60;50.60;;;16.80;99.90;;;;;;5094904;28;20204;-46
2023/05/23 06:07:13;;;;;;;58.10;52.10;;;16.80;99.90;;;;;;5095954;28;20177;-46
2023/05/23 06:09:39;;;;;;;60.40;54.17;;;16.90;99.90;;;;;;5094747;28;20195;-46
2023/05/23 06:12:05;;;;;;;60.63;54.30;;;16.90;99.90;;;;;;5096734;28;20176;-47
2023/05/23 06:14:30;;;;;;;59.50;53.50;;;16.90;99.90;;;;;;5097797;28;20549;-45
2023/05/23 06:16:56;;;;;;;60.37;53.97;;;16.90;99.90;;;;;;5096053;28;20507;-49
2023/05/23 06:19:22;;;;;;;57.50;51.40;;;16.90;99.90;;;;;;5096184;28;20184;-47
2023/05/23 06:21:47;;;;;;;57.37;51.33;;;16.90;99.90;;;;;;5096788;28;20172;-48
2023/05/23 06:24:13;;;;;;;59.67;53.37;;;16.90;99.90;;;;;;5095937;28;20414;-47
2023/05/23 06:26:38;;;;;;;60.27;53.93;;;16.90;99.90;;;;;;5096601;28;20267;-46
2023/05/23 06:29:04;;;;;;;53.70;48.17;;;16.90;99.90;;;;;;5095319;28;20239;-48
2023/05/23 06:31:30;;;;;;;56.47;50.53;;;17.00;99.90;;;;;;5095548;28;20634;-47
2023/05/23 06:33:55;;;;;;;55.80;50.20;;;17.00;99.90;;;;;;5096910;28;20267;-46
2023/05/23 06:36:21;;;;;;;56.97;50.90;;;17.10;54.20;;;;;;5097183;28;20222;-49
2023/05/23 06:38:47;;;;;;;54.47;48.67;;;17.10;30.20;;;;;;5096129;28;20211;-48
2023/05/23 06:41:12;;;;;;;49.93;44.67;;;17.10;25.20;;;;;;5093756;28;20216;-46
2023/05/23 06:43:38;;;;;;;56.27;50.60;;;17.20;38.50;;;;;;5095052;28;20667;-46
2023/05/23 06:46:04;;;;;;;51.00;45.87;;;17.30;1.00;;;;;;5095761;28;20174;-44
2023/05/23 06:48:29;;;;;;;48.57;43.80;;;17.30;1.00;;;;;;5095901;28;20279;-49
2023/05/23 06:50:55;;;;;;;47.27;42.37;;;17.30;1.00;;;;;;5095169;28;20188;-46
2023/05/23 06:53:21;;;;;;;47.27;42.80;;;17.30;1.00;;;;;;5096025;28;20188;-47
2023/05/23 06:55:46;;;;;;;46.13;41.40;;;17.30;1.00;;;;;;5093819;28;20180;-50
2023/05/23 06:58:12;;;;;;;48.50;43.60;;;17.30;1.00;;;;;;5095294;28;20223;-46
2023/05/23 07:00:37;;;;;;;48.93;43.83;;;17.30;1.00;;;;;;5095476;28;20172;-46
2023/05/23 07:03:05;;;;;;;47.97;43.07;;;17.30;1.00;;;;;;5095444;28;20244;-50
2023/05/23 07:05:32;;;;;;;47.83;43.00;;;17.30;1.00;;;;;;5094686;28;20179;-47
2023/05/23 07:07:57;;;;;;;50.37;45.17;;;17.20;1.00;;;;;;5095239;28;20419;-47
2023/05/23 07:10:23;;;;;;;49.30;44.20;;;17.20;1.00;;;;;;5096677;28;20417;-46
2023/05/23 07:12:49;;;;;;;48.13;43.47;;;17.10;1.00;;;;;;5096439;28;20168;-47
2023/05/23 07:15:16;;;;;;;46.40;41.77;;;17.00;1.00;;;;;;5095658;28;20570;-48
2023/05/23 07:17:41;;;;;;;46.53;41.90;;;17.00;1.00;;;;;;5095491;28;20220;-46
2023/05/23 07:20:07;;;;;;;45.70;41.20;;;17.00;1.00;;;;;;5096544;28;20457;-46
2023/05/23 07:22:33;;;;;;;47.93;42.93;;;16.90;1.00;;;;;;5094744;28;20188;-46
2023/05/23 07:24:59;;;;;;;48.00;43.03;;;16.80;1.00;;;;;;5094650;28;20853;-46
2023/05/23 07:27:25;;;;;;;46.80;42.07;;;16.80;1.00;;;;;;5095357;28;20238;-48
2023/05/23 07:29:51;;;;;;;48.57;43.73;;;16.80;1.00;;;;;;5094125;28;20260;-48
2023/05/23 07:32:17;;;;;;;46.47;41.87;;;16.80;1.00;;;;;;5094430;28;20491;-46
2023/05/23 07:34:43;;;;;;;51.70;46.30;;;16.70;1.00;;;;;;5094035;28;20180;-45
2023/05/23 07:37:08;;;;;;;47.60;42.93;;;16.60;1.00;;;;;;5094673;28;20541;-46
2023/05/23 07:39:34;;;;;;;48.87;43.87;;;16.60;1.00;;;;;;5096035;28;20260;-45
2023/05/23 07:41:59;;;;;;;48.97;43.87;;;16.50;1.00;;;;;;5096134;28;20180;-46
2023/05/23 07:44:25;;;;;;;47.10;42.87;;;16.50;1.00;;;;;;5094813;28;20181;-48
2023/05/23 07:46:51;;;;;;;45.97;41.43;;;16.50;1.00;;;;;;5094224;28;20587;-48
2023/05/23 07:49:16;;;;;;;45.53;40.87;;;16.40;1.00;;;;;;5094228;28;20191;-45
2023/05/23 07:51:42;;;;;;;46.70;41.87;;;16.50;1.00;;;;;;5094505;28;20210;-46
2023/05/23 07:54:08;;;;;;;45.30;40.90;;;16.50;1.00;;;;;;5093427;28;20660;-47
2023/05/23 07:56:33;;;;;;;45.43;41.00;;;16.50;1.00;;;;;;5094079;28;20180;-45
2023/05/23 07:58:59;;;;;;;48.20;43.40;;;16.50;1.00;;;;;;5092622;28;20422;-45
2023/05/23 08:01:25;;;;;;;42.70;38.57;;;16.60;99.90;;;;;;5095174;28;20612;-47
2023/05/23 08:03:51;;;;;;;48.13;43.43;;;16.60;99.90;;;;;;5092771;28;20418;-47
2023/05/23 08:06:16;;;;;;;43.57;39.17;;;16.70;99.90;;;;;;5092053;28;20256;-46
2023/05/23 08:08:42;;;;;;;45.93;41.20;;;16.80;99.90;;;;;;5092532;28;20222;-46
2023/05/23 08:11:08;;;;;;;42.23;38.00;;;16.90;68.20;;;;;;5092694;28;20207;-46
2023/05/23 08:13:37;;;;;;;45.20;40.80;;;16.90;1.00;;;;;;5093102;28;20422;-46
2023/05/23 08:22:46;;;;;;;42.37;38.07;;;16.80;1.00;;;;;;5094541;28;20428;-47
2023/05/23 08:25:12;;;;;;;42.63;38.23;;;16.80;1.00;;;;;;5094235;28;20505;-48
2023/05/23 08:27:38;;;;;;;42.47;38.17;;;16.80;1.00;;;;;;5094837;28;20168;-47
2023/05/23 08:30:05;;;;;;;42.20;38.07;;;16.80;1.00;;;;;;5094837;28;20387;-49
2023/05/23 08:32:30;;;;;;;42.30;38.20;;;16.80;1.00;;;;;;5093708;28;20446;-46
2023/05/23 08:34:56;;;;;;;39.33;35.33;;;16.80;99.90;;;;;;5093236;28;20410;-47
2023/05/23 08:37:22;;;;;;;37.93;34.23;;;16.70;99.90;;;;;;5094843;28;20634;-47
2023/05/23 08:39:47;;;;;;;38.90;35.20;;;16.60;1.00;;;;;;5094770;28;20212;-47
2023/05/23 08:42:13;;;;;;;39.17;35.47;;;16.60;99.90;;;;;;5093617;28;20180;-48
2023/05/23 08:44:39;;;;;;;36.23;32.53;;;16.70;99.90;;;;;;5092767;28;20168;-47
2023/05/23 08:47:06;;;;;;;37.10;33.37;;;16.70;99.90;;;;;;5092589;28;20176;-48
2023/05/23 08:49:32;;;;;;;38.30;34.40;;;16.70;99.90;;;;;;5076611;28;20746;-47
2023/05/23 08:52:01;;;;;;;32.90;29.80;;;16.70;99.90;;;;;;5092944;28;20509;-47
2023/05/23 08:54:28;;;;;;;33.83;30.60;;;16.70;99.90;;;;;;5095024;28;20422;-49
2023/05/23 08:56:54;;;;;;;35.47;32.00;;;16.70;99.90;;;;;;5078655;28;20914;-46
2023/05/23 08:59:20;;;;;;;35.90;32.13;;;16.60;95.50;;;;;;5075565;28;20487;-46
2023/05/23 09:01:55;;;;;;;36.03;32.57;;;16.60;99.90;;;;;;5073779;28;20989;-48
2023/05/23 09:04:21;;;;;;;35.83;32.43;;;16.60;56.40;;;;;;5075599;28;20909;-46
2023/05/23 09:06:47;;;;;;;35.70;32.37;;;16.60;99.90;;;;;;5078223;28;20414;-49
2023/05/23 09:09:13;;;;;;;32.03;28.87;;;16.50;99.90;;;;;;5076475;28;20549;-47
2023/05/23 09:11:38;;;;;;;34.50;30.97;;;16.60;99.90;;;;;;5077652;28;20582;-47
2023/05/23 09:14:06;;;;;;;31.17;28.07;;;16.70;99.90;;;;;;5076186;28;20185;-47
2023/05/23 09:16:33;;;;;;;31.63;28.33;;;16.80;1.00;;;;;;5077817;28;20192;-47
2023/05/23 09:19:09;;;;;;;34.33;31.13;;;17.00;1.00;;;;;;5076328;28;21016;-47
2023/05/23 09:21:36;;;;;;;33.10;29.60;;;17.10;35.20;;;;;;5076764;28;20890;-49
2023/05/23 09:24:01;;;;;;;32.80;29.60;;;17.30;1.00;;;;;;5075324;28;20411;-46
2023/05/23 09:26:27;;;;;;;31.97;28.87;;;17.40;99.90;;;;;;5076421;28;20522;-48
2023/05/23 09:28:56;;;;;;;34.80;31.40;;;17.40;99.90;;;;;;5077000;28;20327;-49
2023/05/23 09:31:27;;;;;;;31.30;28.40;;;17.50;1.00;;;;;;5077072;28;20181;-47
2023/05/23 09:33:52;;;;;;;30.20;27.20;;;17.50;1.00;;;;;;5075953;28;20411;-49
2023/05/23 09:36:18;;;;;;;29.87;27.07;;;17.50;1.00;;;;;;5077100;28;20427;-46
2023/05/23 09:38:46;;;;;;;31.33;28.20;;;17.40;99.90;;;;;;5075660;28;20752;-47
2023/05/23 09:41:12;;;;;;;27.87;24.97;;;17.40;1.00;;;;;;5076183;28;20305;-46
2023/05/23 09:43:54;;;;;;;28.67;25.77;;;17.40;99.90;;;;;;5076986;28;20414;-49
2023/05/23 09:46:20;;;;;;;27.20;24.70;;;17.40;1.00;;;;;;5077093;28;20488;-47
2023/05/23 09:48:47;;;;;;;26.90;23.10;;;17.60;99.90;;;;;;5076872;28;20735;-47
2023/05/23 09:51:13;;;;;;;25.20;22.80;;;17.70;1.00;;;;;;5075639;28;20877;-48
2023/05/23 09:53:39;;;;;;;24.10;21.70;;;17.80;99.90;;;;;;5074240;28;20925;-46
2023/05/23 09:56:06;;;;;;;23.33;21.00;;;18.00;1.00;;;;;;5076618;28;20408;-48
2023/05/23 09:58:32;;;;;;;23.37;21.17;;;18.20;99.90;;;;;;5077214;28;20477;-46
2023/05/23 10:01:02;;;;;;;20.87;18.87;;;18.50;99.90;;;;;;5075480;28;20415;-47
2023/05/23 10:03:34;;;;;;;21.37;19.23;;;18.70;1.00;;;;;;5077539;28;20415;-49
2023/05/23 10:06:07;;;;;;;20.90;19.00;;;18.80;1.00;;;;;;5077038;28;20506;-46
2023/05/23 10:08:39;;;;;;;21.57;19.47;;;19.00;99.90;;;;;;5076661;28;20439;-46
2023/05/23 10:11:13;;;;;;;21.63;19.60;;;19.00;99.90;;;;;;5076794;28;20419;-47
2023/05/23 10:13:47;;;;;;;21.20;19.40;;;19.10;99.90;;;;;;5078299;28;20426;-46
2023/05/23 10:16:49;;;;;;;19.73;17.80;;;19.10;99.90;;;;;;5075641;28;20423;-48
2023/05/23 10:19:25;;;;;;;17.50;16.00;;;19.10;1.00;;;;;;5053574;28;20435;-46
2023/05/23 10:21:58;;;;;;;19.63;17.70;;;18.90;1.00;;;;;;5075414;28;20411;-48
2023/05/23 10:24:25;;;;;;;18.67;17.00;;;18.90;1.00;;;;;;5074337;28;20415;-48
2023/05/23 10:26:51;;;;;;;20.23;18.23;;;18.90;1.00;;;;;;5075292;28;20846;-48
2023/05/23 10:29:17;;;;;;;17.73;16.13;;;18.80;1.00;;;;;;5073203;28;20537;-47
2023/05/23 10:31:43;;;;;;;19.30;17.70;;;19.00;1.00;;;;;;5075196;28;20700;-46
2023/05/23 10:34:21;;;;;;;17.43;15.93;;;19.10;1.00;;;;;;5075406;28;20168;-46
2023/05/23 10:36:59;;;;;;;18.20;16.47;;;19.30;1.00;;;;;;5076551;28;21147;-47
2023/05/23 10:39:49;;;;;;;19.50;17.70;;;19.50;1.00;;;;;;5076096;28;20425;-47
2023/05/23 10:42:41;;;;;;;17.30;15.80;;;19.70;1.00;;;;;;5066893;28;20450;-48
2023/05/23 10:45:15;;;;;;;17.20;15.60;;;19.80;1.00;;;;;;5078020;28;20444;-47
2023/05/23 10:47:41;;;;;;;16.50;15.10;;;19.90;99.90;;;;;;5077473;28;20457;-48
2023/05/23 10:50:10;;;;;;;15.10;13.70;;;19.80;99.90;;;;;;5077455;28;20885;-47
2023/05/23 10:52:39;;;;;;;15.00;13.70;;;20.00;99.90;;;;;;5075979;28;20437;-47
2023/05/23 10:55:13;;;;;;;15.20;13.70;;;20.30;99.90;;;;;;5077141;28;20419;-49
2023/05/23 10:57:42;;;;;;;15.50;14.10;;;20.50;99.90;;;;;;5084658;28;20466;-47
2023/05/23 11:00:15;;;;;;;14.93;13.67;;;20.50;99.90;;;;;;5091165;28;20523;-49
2023/05/23 11:02:57;;;;;;;13.80;12.60;;;20.50;99.90;;;;;;5092229;28;20737;-48
2023/05/23 11:05:26;;;;;;;13.83;12.60;;;20.50;96.30;;;;;;5093083;28;20417;-48
2023/05/23 11:08:08;;;;;;;13.60;12.50;;;20.80;64.90;;;;;;5093577;28;21005;-49
2023/05/23 11:11:00;;;;;;;16.17;14.77;;;21.30;41.90;;;;;;5095025;28;20501;-47
2023/05/23 11:13:51;;;;;;;17.93;16.30;;;21.50;32.90;;;;;;5088696;28;20453;-47
2023/05/23 11:16:31;;;;;;;18.03;16.43;;;21.40;29.40;;;;;;5095216;28;21062;-48
2023/05/23 11:19:18;;;;;;;19.57;17.93;;;21.20;29.80;;;;;;5094151;28;20436;-47
2023/05/23 11:21:45;;;;;;;19.23;17.43;;;21.10;28.50;;;;;;5094303;28;20402;-47
2023/05/23 11:24:11;;;;;;;19.50;17.70;;;21.10;26.90;;;;;;5093631;28;20426;-47
2023/05/23 11:26:37;;;;;;;18.53;17.03;;;21.00;19.80;;;;;;5094339;28;20901;-48
2023/05/23 11:29:08;;;;;;;17.37;15.90;;;20.90;12.30;;;;;;5091999;28;20270;-47
2023/05/23 11:31:37;;;;;;;16.67;15.27;;;20.80;7.90;;;;;;5093646;28;20250;-48
2023/05/23 11:34:03;;;;;;;17.50;16.00;;;20.70;12.90;;;;;;5094518;28;20418;-47
2023/05/23 11:36:30;;;;;;;18.10;16.50;;;20.70;6.20;;;;;;5092723;28;20483;-49
2023/05/23 11:38:56;;;;;;;18.67;17.17;;;20.60;6.70;;;;;;5094013;28;20200;-47
2023/05/23 11:41:22;;;;;;;19.90;18.10;;;20.50;3.00;;;;;;5094084;28;20932;-47
2023/05/23 11:43:51;;;;;;;17.60;15.93;;;20.30;11.90;;;;;;5094741;28;20418;-47
2023/05/23 11:46:17;;;;;;;16.47;14.97;;;20.30;5.00;;;;;;5095053;28;20256;-47
2023/05/23 11:48:46;;;;;;;16.77;15.10;;;20.30;6.00;;;;;;5094963;28;20517;-48
2023/05/23 11:51:12;;;;;;;14.70;13.50;;;20.60;7.00;;;;;;5094151;28;20430;-49
2023/05/23 11:53:38;;;;;;;17.20;15.60;;;21.00;1.00;;;;;;5093042;28;20472;-49
2023/05/23 11:56:04;;;;;;;15.07;13.77;;;21.40;1.00;;;;;;5092550;28;20530;-46
2023/05/23 11:58:33;;;;;;;15.57;14.17;;;21.60;1.00;;;;;;5093447;28;20242;-47
2023/05/23 12:01:02;;;;;;;16.20;14.90;;;21.50;1.00;;;;;;5094534;28;20419;-48
2023/05/23 12:03:27;;;;;;;15.37;13.97;;;21.60;1.00;;;;;;5095217;28;21129;-48
2023/05/23 12:05:57;;;;;;;16.60;13.87;;;21.60;1.00;;;;;;5091257;28;20418;-46
2023/05/23 12:08:24;;;;;;;14.93;13.63;;;21.60;1.00;;;;;;5092355;28;20183;-47
2023/05/23 12:10:56;;;;;;;15.70;14.50;;;21.70;1.00;;;;;;5092709;28;20848;-50
2023/05/23 12:13:27;;;;;;;13.33;12.23;;;21.60;1.00;;;;;;5094111;28;20733;-47
2023/05/23 12:15:58;;;;;;;15.70;14.40;;;21.40;1.00;;;;;;5093366;28;20556;-48
2023/05/23 12:18:27;;;;;;;15.83;14.53;;;21.30;1.00;;;;;;5092777;28;20466;-48
2023/05/23 12:20:53;;;;;;;16.47;15.07;;;21.00;1.00;;;;;;5092308;28;20480;-48
2023/05/23 12:23:20;;;;;;;13.37;12.17;;;20.80;1.00;;;;;;5091890;28;20418;-47
2023/05/23 12:25:52;;;;;;;13.10;11.90;;;20.60;1.00;;;;;;5093263;28;20183;-48
2023/05/23 12:28:19;;;;;;;11.80;10.80;;;20.50;1.00;;;;;;5093608;28;20499;-50
2023/05/23 12:30:45;;;;;;;12.03;10.87;;;20.50;1.00;;;;;;5094351;28;20479;-47
2023/05/23 12:33:10;;;;;;;11.97;10.97;;;20.50;1.00;;;;;;5094203;28;20451;-48
2023/05/23 12:35:36;;;;;;;11.97;10.97;;;20.30;1.00;;;;;;5093012;28;20180;-47
2023/05/23 12:38:05;;;;;;;10.70;9.90;;;20.10;1.00;;;;;;5095237;28;20215;-46
2023/05/23 12:40:31;;;;;;;8.97;8.17;;;20.20;1.00;;;;;;5099382;28;20263;-50
2023/05/23 12:42:57;;;;;;;9.77;9.07;;;20.60;1.00;;;;;;5100333;28;20509;-48